sensor_id;sensor_type;location;lat;lon;timestamp;temperature;humidity
26907;DHT22;14472;56.880;16.658;2024-01-30T00:01:41;3.80;34.60
26907;DHT22;14472;56.880;16.658;2024-01-30T00:04:07;3.70;34.60
26907;DHT22;14472;56.880;16.658;2024-01-30T00:06:32;3.70;37.50
26907;DHT22;14472;56.880;16.658;2024-01-30T00:08:58;3.80;41.00
26907;DHT22;14472;56.880;16.658;2024-01-30T00:11:24;3.70;38.00
26907;DHT22;14472;56.880;16.658;2024-01-30T00:13:54;3.80;40.90
26907;DHT22;14472;56.880;16.658;2024-01-30T00:16:25;3.70;40.90
26907;DHT22;14472;56.880;16.658;2024-01-30T00:18:51;3.80;53.20
26907;DHT22;14472;56.880;16.658;2024-01-30T00:21:17;3.90;46.00
26907;DHT22;14472;56.880;16.658;2024-01-30T00:23:43;3.80;45.80
26907;DHT22;14472;56.880;16.658;2024-01-30T00:26:09;3.70;47.00
26907;DHT22;14472;56.880;16.658;2024-01-30T00:28:34;3.70;48.50
26907;DHT22;14472;56.880;16.658;2024-01-30T00:31:00;3.70;52.00
26907;DHT22;14472;56.880;16.658;2024-01-30T00:33:26;3.80;50.30
26907;DHT22;14472;56.880;16.658;2024-01-30T00:35:51;3.80;47.80
26907;DHT22;14472;56.880;16.658;2024-01-30T00:38:17;3.70;48.80
26907;DHT22;14472;56.880;16.658;2024-01-30T00:40:43;3.70;52.10
26907;DHT22;14472;56.880;16.658;2024-01-30T00:43:08;3.70;53.00
26907;DHT22;14472;56.880;16.658;2024-01-30T00:45:34;3.70;53.00
26907;DHT22;14472;56.880;16.658;2024-01-30T00:48:00;3.70;55.50
26907;DHT22;14472;56.880;16.658;2024-01-30T00:50:25;3.80;53.50
26907;DHT22;14472;56.880;16.658;2024-01-30T00:52:51;3.80;55.80
26907;DHT22;14472;56.880;16.658;2024-01-30T00:55:17;3.80;53.20
26907;DHT22;14472;56.880;16.658;2024-01-30T00:57:42;3.80;53.20
26907;DHT22;14472;56.880;16.658;2024-01-30T01:00:09;3.80;52.00
26907;DHT22;14472;56.880;16.658;2024-01-30T01:02:35;3.70;53.10
26907;DHT22;14472;56.880;16.658;2024-01-30T01:05:01;3.70;53.10
26907;DHT22;14472;56.880;16.658;2024-01-30T01:07:27;3.70;53.40
26907;DHT22;14472;56.880;16.658;2024-01-30T01:09:53;3.80;59.10
26907;DHT22;14472;56.880;16.658;2024-01-30T01:12:18;3.80;53.20
26907;DHT22;14472;56.880;16.658;2024-01-30T01:14:45;3.80;55.00
26907;DHT22;14472;56.880;16.658;2024-01-30T01:17:10;3.80;55.70
26907;DHT22;14472;56.880;16.658;2024-01-30T01:19:36;3.80;61.30
26907;DHT22;14472;56.880;16.658;2024-01-30T01:22:02;3.90;72.80
26907;DHT22;14472;56.880;16.658;2024-01-30T01:24:30;4.00;62.10
26907;DHT22;14472;56.880;16.658;2024-01-30T01:26:57;3.90;60.30
26907;DHT22;14472;56.880;16.658;2024-01-30T01:29:23;3.90;59.10
26907;DHT22;14472;56.880;16.658;2024-01-30T01:31:57;3.80;58.70
26907;DHT22;14472;56.880;16.658;2024-01-30T01:34:23;3.80;59.10
26907;DHT22;14472;56.880;16.658;2024-01-30T01:36:50;3.80;62.30
26907;DHT22;14472;56.880;16.658;2024-01-30T01:39:16;3.80;60.40
26907;DHT22;14472;56.880;16.658;2024-01-30T01:41:41;3.80;64.20
26907;DHT22;14472;56.880;16.658;2024-01-30T01:44:08;3.80;65.80
26907;DHT22;14472;56.880;16.658;2024-01-30T01:46:34;3.80;63.60
26907;DHT22;14472;56.880;16.658;2024-01-30T01:49:04;3.80;65.80
26907;DHT22;14472;56.880;16.658;2024-01-30T01:51:31;3.80;65.80
26907;DHT22;14472;56.880;16.658;2024-01-30T01:54:03;3.80;64.40
26907;DHT22;14472;56.880;16.658;2024-01-30T01:56:30;3.70;64.20
26907;DHT22;14472;56.880;16.658;2024-01-30T01:59:00;3.70;66.60
26907;DHT22;14472;56.880;16.658;2024-01-30T02:01:27;3.80;59.80
26907;DHT22;14472;56.880;16.658;2024-01-30T02:03:54;3.80;59.10
26907;DHT22;14472;56.880;16.658;2024-01-30T02:06:20;3.80;59.20
26907;DHT22;14472;56.880;16.658;2024-01-30T02:08:45;3.70;60.60
26907;DHT22;14472;56.880;16.658;2024-01-30T02:11:11;3.70;65.00
26907;DHT22;14472;56.880;16.658;2024-01-30T02:13:37;3.70;69.10
26907;DHT22;14472;56.880;16.658;2024-01-30T02:16:03;3.70;66.90
26907;DHT22;14472;56.880;16.658;2024-01-30T02:18:29;3.70;69.20
26907;DHT22;14472;56.880;16.658;2024-01-30T02:20:56;3.70;87.80
26907;DHT22;14472;56.880;16.658;2024-01-30T02:23:24;3.80;75.50
26907;DHT22;14472;56.880;16.658;2024-01-30T02:25:50;3.70;79.30
26907;DHT22;14472;56.880;16.658;2024-01-30T02:28:19;3.70;81.50
26907;DHT22;14472;56.880;16.658;2024-01-30T02:30:46;3.70;79.30
26907;DHT22;14472;56.880;16.658;2024-01-30T02:33:12;3.60;76.30
26907;DHT22;14472;56.880;16.658;2024-01-30T02:35:38;3.60;78.50
26907;DHT22;14472;56.880;16.658;2024-01-30T02:38:04;3.50;80.30
26907;DHT22;14472;56.880;16.658;2024-01-30T02:40:30;3.60;82.50
26907;DHT22;14472;56.880;16.658;2024-01-30T02:42:56;3.50;85.70
26907;DHT22;14472;56.880;16.658;2024-01-30T02:45:22;3.50;85.50
26907;DHT22;14472;56.880;16.658;2024-01-30T02:47:47;3.40;87.70
26907;DHT22;14472;56.880;16.658;2024-01-30T02:50:13;3.50;90.60
26907;DHT22;14472;56.880;16.658;2024-01-30T02:52:40;3.50;92.10
26907;DHT22;14472;56.880;16.658;2024-01-30T02:55:06;3.70;91.00
26907;DHT22;14472;56.880;16.658;2024-01-30T02:57:32;3.70;79.30
26907;DHT22;14472;56.880;16.658;2024-01-30T02:59:58;3.90;79.50
26907;DHT22;14472;56.880;16.658;2024-01-30T03:02:24;4.10;69.10
26907;DHT22;14472;56.880;16.658;2024-01-30T03:04:49;4.00;54.00
26907;DHT22;14472;56.880;16.658;2024-01-30T03:07:15;3.90;59.70
26907;DHT22;14472;56.880;16.658;2024-01-30T03:09:44;4.00;63.00
26907;DHT22;14472;56.880;16.658;2024-01-30T03:12:10;4.20;61.20
26907;DHT22;14472;56.880;16.658;2024-01-30T03:14:36;4.20;47.40
26907;DHT22;14472;56.880;16.658;2024-01-30T03:17:02;4.10;55.30
26907;DHT22;14472;56.880;16.658;2024-01-30T03:19:28;4.10;57.40
26907;DHT22;14472;56.880;16.658;2024-01-30T03:21:53;4.10;59.50
26907;DHT22;14472;56.880;16.658;2024-01-30T03:24:19;4.30;65.60
26907;DHT22;14472;56.880;16.658;2024-01-30T03:26:45;4.20;49.90
26907;DHT22;14472;56.880;16.658;2024-01-30T03:29:11;4.10;47.20
26907;DHT22;14472;56.880;16.658;2024-01-30T03:31:36;4.00;47.40
26907;DHT22;14472;56.880;16.658;2024-01-30T03:34:02;3.90;59.10
26907;DHT22;14472;56.880;16.658;2024-01-30T03:36:28;4.10;67.60
26907;DHT22;14472;56.880;16.658;2024-01-30T03:38:54;4.20;49.80
26907;DHT22;14472;56.880;16.658;2024-01-30T03:41:19;4.00;47.30
26907;DHT22;14472;56.880;16.658;2024-01-30T03:43:46;3.90;53.20
26907;DHT22;14472;56.880;16.658;2024-01-30T03:46:12;3.90;57.70
26907;DHT22;14472;56.880;16.658;2024-01-30T03:48:38;4.10;71.60
26907;DHT22;14472;56.880;16.658;2024-01-30T03:51:05;4.10;58.00
26907;DHT22;14472;56.880;16.658;2024-01-30T03:53:31;4.00;51.80
26907;DHT22;14472;56.880;16.658;2024-01-30T03:55:56;3.90;54.00
26907;DHT22;14472;56.880;16.658;2024-01-30T03:58:22;4.00;59.20
26907;DHT22;14472;56.880;16.658;2024-01-30T04:00:48;4.10;66.10
26907;DHT22;14472;56.880;16.658;2024-01-30T04:03:16;4.20;53.30
26907;DHT22;14472;56.880;16.658;2024-01-30T04:05:42;4.10;49.00
26907;DHT22;14472;56.880;16.658;2024-01-30T04:08:08;4.00;53.40
26907;DHT22;14472;56.880;16.658;2024-01-30T04:10:34;3.70;13.30
26907;DHT22;14472;56.880;16.658;2024-01-30T04:12:59;4.10;92.80
26907;DHT22;14472;56.880;16.658;2024-01-30T04:15:26;4.30;72.40
26907;DHT22;14472;56.880;16.658;2024-01-30T04:17:52;4.20;57.50
26907;DHT22;14472;56.880;16.658;2024-01-30T04:20:18;4.10;57.00
26907;DHT22;14472;56.880;16.658;2024-01-30T04:22:47;4.20;73.10
26907;DHT22;14472;56.880;16.658;2024-01-30T04:25:13;4.50;64.80
26907;DHT22;14472;56.880;16.658;2024-01-30T04:27:39;4.30;48.50
26907;DHT22;14472;56.880;16.658;2024-01-30T04:30:05;4.10;50.90
26907;DHT22;14472;56.880;16.658;2024-01-30T04:32:32;4.00;58.10
26907;DHT22;14472;56.880;16.658;2024-01-30T04:34:58;4.10;69.90
26907;DHT22;14472;56.880;16.658;2024-01-30T04:37:24;4.20;66.50
26907;DHT22;14472;56.880;16.658;2024-01-30T04:39:50;4.10;53.40
26907;DHT22;14472;56.880;16.658;2024-01-30T04:42:16;4.00;59.20
26907;DHT22;14472;56.880;16.658;2024-01-30T04:44:42;4.00;63.10
26907;DHT22;14472;56.880;16.658;2024-01-30T04:47:07;4.10;73.00
26907;DHT22;14472;56.880;16.658;2024-01-30T04:49:34;4.20;68.00
26907;DHT22;14472;56.880;16.658;2024-01-30T04:52:00;4.10;53.70
26907;DHT22;14472;56.880;16.658;2024-01-30T04:54:26;4.00;53.40
26907;DHT22;14472;56.880;16.658;2024-01-30T04:56:52;3.90;69.50
26907;DHT22;14472;56.880;16.658;2024-01-30T04:59:18;4.00;91.10
26907;DHT22;14472;56.880;16.658;2024-01-30T05:01:44;4.10;79.70
26907;DHT22;14472;56.880;16.658;2024-01-30T05:04:10;3.90;58.30
26907;DHT22;14472;56.880;16.658;2024-01-30T05:06:36;3.70;65.70
26907;DHT22;14472;56.880;16.658;2024-01-30T05:09:02;3.70;77.60
26907;DHT22;14472;56.880;16.658;2024-01-30T05:11:31;3.60;87.60
26907;DHT22;14472;56.880;16.658;2024-01-30T05:13:57;3.70;88.30
26907;DHT22;14472;56.880;16.658;2024-01-30T05:16:22;3.60;91.00
26907;DHT22;14472;56.880;16.658;2024-01-30T05:18:48;3.60;92.70
26907;DHT22;14472;56.880;16.658;2024-01-30T05:21:14;3.50;92.20
26907;DHT22;14472;56.880;16.658;2024-01-30T05:23:40;3.40;92.90
26907;DHT22;14472;56.880;16.658;2024-01-30T05:26:07;3.40;96.60
26907;DHT22;14472;56.880;16.658;2024-01-30T05:28:33;3.30;97.80
26907;DHT22;14472;56.880;16.658;2024-01-30T05:30:59;3.30;99.90
26907;DHT22;14472;56.880;16.658;2024-01-30T05:33:25;3.30;99.90
26907;DHT22;14472;56.880;16.658;2024-01-30T05:35:50;3.40;99.90
26907;DHT22;14472;56.880;16.658;2024-01-30T05:38:20;3.40;99.90
26907;DHT22;14472;56.880;16.658;2024-01-30T05:40:45;3.50;99.90
26907;DHT22;14472;56.880;16.658;2024-01-30T05:43:11;3.50;99.90
26907;DHT22;14472;56.880;16.658;2024-01-30T05:45:37;3.50;99.90
26907;DHT22;14472;56.880;16.658;2024-01-30T05:48:03;3.60;99.90
26907;DHT22;14472;56.880;16.658;2024-01-30T05:50:29;3.70;99.90
26907;DHT22;14472;56.880;16.658;2024-01-30T05:52:55;3.70;99.90
26907;DHT22;14472;56.880;16.658;2024-01-30T05:55:21;3.70;99.90
26907;DHT22;14472;56.880;16.658;2024-01-30T05:57:47;3.80;99.90
26907;DHT22;14472;56.880;16.658;2024-01-30T06:00:13;3.80;99.90
26907;DHT22;14472;56.880;16.658;2024-01-30T06:02:39;3.80;99.90
26907;DHT22;14472;56.880;16.658;2024-01-30T06:05:05;3.80;99.90
26907;DHT22;14472;56.880;16.658;2024-01-30T06:07:31;3.80;99.90
26907;DHT22;14472;56.880;16.658;2024-01-30T06:09:56;3.80;99.90
26907;DHT22;14472;56.880;16.658;2024-01-30T06:12:22;3.80;99.90
26907;DHT22;14472;56.880;16.658;2024-01-30T06:14:48;3.80;99.90
26907;DHT22;14472;56.880;16.658;2024-01-30T06:17:13;3.70;99.90
26907;DHT22;14472;56.880;16.658;2024-01-30T06:19:39;3.70;99.90
26907;DHT22;14472;56.880;16.658;2024-01-30T06:22:05;3.80;99.90
26907;DHT22;14472;56.880;16.658;2024-01-30T06:24:31;3.80;99.90
26907;DHT22;14472;56.880;16.658;2024-01-30T06:26:56;3.80;99.90
26907;DHT22;14472;56.880;16.658;2024-01-30T06:29:22;3.80;99.90
26907;DHT22;14472;56.880;16.658;2024-01-30T06:31:50;3.80;99.90
26907;DHT22;14472;56.880;16.658;2024-01-30T06:34:15;3.80;99.90
26907;DHT22;14472;56.880;16.658;2024-01-30T06:36:41;3.80;99.90
26907;DHT22;14472;56.880;16.658;2024-01-30T06:39:07;3.70;99.90
26907;DHT22;14472;56.880;16.658;2024-01-30T06:41:33;3.80;99.90
26907;DHT22;14472;56.880;16.658;2024-01-30T06:43:59;3.80;99.90
26907;DHT22;14472;56.880;16.658;2024-01-30T06:46:25;3.80;99.90
26907;DHT22;14472;56.880;16.658;2024-01-30T06:48:50;3.90;99.90
26907;DHT22;14472;56.880;16.658;2024-01-30T06:51:16;4.00;99.90
26907;DHT22;14472;56.880;16.658;2024-01-30T06:53:42;4.00;99.90
26907;DHT22;14472;56.880;16.658;2024-01-30T06:56:08;4.00;99.90
26907;DHT22;14472;56.880;16.658;2024-01-30T06:58:34;4.00;99.90
26907;DHT22;14472;56.880;16.658;2024-01-30T07:00:59;4.00;99.90
26907;DHT22;14472;56.880;16.658;2024-01-30T07:03:25;3.90;99.90
26907;DHT22;14472;56.880;16.658;2024-01-30T07:05:50;3.90;99.90
26907;DHT22;14472;56.880;16.658;2024-01-30T07:08:17;3.90;99.90
26907;DHT22;14472;56.880;16.658;2024-01-30T07:10:43;3.90;99.90
26907;DHT22;14472;56.880;16.658;2024-01-30T07:13:10;3.80;99.90
26907;DHT22;14472;56.880;16.658;2024-01-30T07:15:36;3.80;99.90
26907;DHT22;14472;56.880;16.658;2024-01-30T07:18:05;3.90;99.90
26907;DHT22;14472;56.880;16.658;2024-01-30T07:20:31;3.90;99.90
26907;DHT22;14472;56.880;16.658;2024-01-30T07:23:00;4.00;99.90
26907;DHT22;14472;56.880;16.658;2024-01-30T07:25:26;4.00;99.90
26907;DHT22;14472;56.880;16.658;2024-01-30T07:27:58;3.90;99.90
26907;DHT22;14472;56.880;16.658;2024-01-30T07:30:24;3.90;99.90
26907;DHT22;14472;56.880;16.658;2024-01-30T07:32:49;3.80;99.90
26907;DHT22;14472;56.880;16.658;2024-01-30T07:35:15;3.70;99.90
26907;DHT22;14472;56.880;16.658;2024-01-30T07:37:41;3.60;99.90
26907;DHT22;14472;56.880;16.658;2024-01-30T07:40:07;3.50;99.90
26907;DHT22;14472;56.880;16.658;2024-01-30T07:42:33;3.50;99.90
26907;DHT22;14472;56.880;16.658;2024-01-30T07:45:00;3.40;99.90
26907;DHT22;14472;56.880;16.658;2024-01-30T07:47:26;3.30;99.90
26907;DHT22;14472;56.880;16.658;2024-01-30T07:49:51;3.40;99.90
26907;DHT22;14472;56.880;16.658;2024-01-30T07:52:18;3.40;99.90
26907;DHT22;14472;56.880;16.658;2024-01-30T07:54:43;3.30;99.90
26907;DHT22;14472;56.880;16.658;2024-01-30T07:57:28;3.20;99.90
26907;DHT22;14472;56.880;16.658;2024-01-30T07:59:53;3.20;99.90
26907;DHT22;14472;56.880;16.658;2024-01-30T08:02:19;3.10;99.90
26907;DHT22;14472;56.880;16.658;2024-01-30T08:04:45;3.10;99.90
26907;DHT22;14472;56.880;16.658;2024-01-30T08:07:14;3.10;99.90
26907;DHT22;14472;56.880;16.658;2024-01-30T08:09:40;3.00;99.90
26907;DHT22;14472;56.880;16.658;2024-01-30T08:12:05;3.10;99.90
26907;DHT22;14472;56.880;16.658;2024-01-30T08:14:31;3.10;99.90
26907;DHT22;14472;56.880;16.658;2024-01-30T08:16:57;3.10;99.90
26907;DHT22;14472;56.880;16.658;2024-01-30T08:19:23;3.30;99.90
26907;DHT22;14472;56.880;16.658;2024-01-30T08:21:48;3.30;99.90
26907;DHT22;14472;56.880;16.658;2024-01-30T08:24:14;3.40;99.90
26907;DHT22;14472;56.880;16.658;2024-01-30T08:26:39;3.50;99.90
26907;DHT22;14472;56.880;16.658;2024-01-30T08:29:05;3.60;99.90
26907;DHT22;14472;56.880;16.658;2024-01-30T08:31:31;3.50;99.90
26907;DHT22;14472;56.880;16.658;2024-01-30T08:33:56;3.60;99.90
26907;DHT22;14472;56.880;16.658;2024-01-30T08:36:22;3.60;99.90
26907;DHT22;14472;56.880;16.658;2024-01-30T08:38:48;3.60;99.90
26907;DHT22;14472;56.880;16.658;2024-01-30T08:41:14;3.60;99.90
26907;DHT22;14472;56.880;16.658;2024-01-30T08:43:40;3.60;99.90
26907;DHT22;14472;56.880;16.658;2024-01-30T08:46:05;3.80;99.90
26907;DHT22;14472;56.880;16.658;2024-01-30T08:48:31;3.80;99.90
26907;DHT22;14472;56.880;16.658;2024-01-30T08:50:57;3.90;99.90
26907;DHT22;14472;56.880;16.658;2024-01-30T08:53:23;3.80;99.90
26907;DHT22;14472;56.880;16.658;2024-01-30T08:55:48;3.90;99.90
26907;DHT22;14472;56.880;16.658;2024-01-30T08:58:14;3.90;99.90
26907;DHT22;14472;56.880;16.658;2024-01-30T09:00:40;4.00;99.90
26907;DHT22;14472;56.880;16.658;2024-01-30T09:03:06;4.00;99.90
26907;DHT22;14472;56.880;16.658;2024-01-30T09:05:32;3.90;99.90
26907;DHT22;14472;56.880;16.658;2024-01-30T09:07:57;3.90;99.90
26907;DHT22;14472;56.880;16.658;2024-01-30T09:10:23;4.00;99.90
26907;DHT22;14472;56.880;16.658;2024-01-30T09:12:49;4.10;99.90
26907;DHT22;14472;56.880;16.658;2024-01-30T09:15:15;4.00;99.90
26907;DHT22;14472;56.880;16.658;2024-01-30T09:17:40;4.30;99.90
26907;DHT22;14472;56.880;16.658;2024-01-30T09:20:06;4.30;97.20
26907;DHT22;14472;56.880;16.658;2024-01-30T09:22:32;4.20;92.50
26907;DHT22;14472;56.880;16.658;2024-01-30T09:24:58;4.20;91.30
26907;DHT22;14472;56.880;16.658;2024-01-30T09:27:24;4.10;94.60
26907;DHT22;14472;56.880;16.658;2024-01-30T09:29:50;4.10;95.20
26907;DHT22;14472;56.880;16.658;2024-01-30T09:32:15;4.20;94.80
26907;DHT22;14472;56.880;16.658;2024-01-30T09:34:43;4.20;94.30
26907;DHT22;14472;56.880;16.658;2024-01-30T09:37:08;4.10;94.10
26907;DHT22;14472;56.880;16.658;2024-01-30T09:39:34;4.20;99.90
26907;DHT22;14472;56.880;16.658;2024-01-30T09:42:10;4.20;99.90
26907;DHT22;14472;56.880;16.658;2024-01-30T09:44:38;4.30;99.90
26907;DHT22;14472;56.880;16.658;2024-01-30T09:47:07;4.30;99.90
26907;DHT22;14472;56.880;16.658;2024-01-30T09:49:34;4.40;98.80
26907;DHT22;14472;56.880;16.658;2024-01-30T09:52:02;4.40;97.10
26907;DHT22;14472;56.880;16.658;2024-01-30T09:54:31;4.40;94.50
26907;DHT22;14472;56.880;16.658;2024-01-30T09:57:00;4.50;92.10
26907;DHT22;14472;56.880;16.658;2024-01-30T09:59:26;4.40;90.30
26907;DHT22;14472;56.880;16.658;2024-01-30T10:01:52;4.40;95.00
26907;DHT22;14472;56.880;16.658;2024-01-30T10:04:18;4.50;91.90
26907;DHT22;14472;56.880;16.658;2024-01-30T10:06:44;4.50;91.40
26907;DHT22;14472;56.880;16.658;2024-01-30T10:09:09;4.50;91.40
26907;DHT22;14472;56.880;16.658;2024-01-30T10:11:36;4.50;86.70
26907;DHT22;14472;56.880;16.658;2024-01-30T10:14:02;4.40;92.00
26907;DHT22;14472;56.880;16.658;2024-01-30T10:16:28;4.60;87.50
26907;DHT22;14472;56.880;16.658;2024-01-30T10:18:53;4.70;81.90
26907;DHT22;14472;56.880;16.658;2024-01-30T10:21:19;4.70;71.80
26907;DHT22;14472;56.880;16.658;2024-01-30T10:23:45;4.80;70.80
26907;DHT22;14472;56.880;16.658;2024-01-30T10:26:11;4.70;58.30
26907;DHT22;14472;56.880;16.658;2024-01-30T10:28:36;4.60;62.90
26907;DHT22;14472;56.880;16.658;2024-01-30T10:31:02;4.70;59.70
26907;DHT22;14472;56.880;16.658;2024-01-30T10:33:31;4.70;66.70
26907;DHT22;14472;56.880;16.658;2024-01-30T10:36:02;4.70;66.70
26907;DHT22;14472;56.880;16.658;2024-01-30T10:38:29;4.80;72.90
26907;DHT22;14472;56.880;16.658;2024-01-30T10:41:00;4.80;73.60
26907;DHT22;14472;56.880;16.658;2024-01-30T10:43:33;4.90;72.40
26907;DHT22;14472;56.880;16.658;2024-01-30T10:46:20;4.90;67.20
26907;DHT22;14472;56.880;16.658;2024-01-30T10:48:54;5.00;58.50
26907;DHT22;14472;56.880;16.658;2024-01-30T10:51:22;5.00;60.00
26907;DHT22;14472;56.880;16.658;2024-01-30T10:53:49;5.00;54.60
26907;DHT22;14472;56.880;16.658;2024-01-30T10:56:16;5.00;48.10
26907;DHT22;14472;56.880;16.658;2024-01-30T10:58:42;5.00;43.30
26907;DHT22;14472;56.880;16.658;2024-01-30T11:01:09;5.00;43.10
26907;DHT22;14472;56.880;16.658;2024-01-30T11:03:35;5.00;39.10
26907;DHT22;14472;56.880;16.658;2024-01-30T11:06:02;5.10;43.10
26907;DHT22;14472;56.880;16.658;2024-01-30T11:08:28;5.10;42.00
26907;DHT22;14472;56.880;16.658;2024-01-30T11:10:58;5.10;42.00
26907;DHT22;14472;56.880;16.658;2024-01-30T11:13:30;5.10;35.70
26907;DHT22;14472;56.880;16.658;2024-01-30T11:16:09;5.20;43.60
26907;DHT22;14472;56.880;16.658;2024-01-30T11:18:36;5.20;44.20
26907;DHT22;14472;56.880;16.658;2024-01-30T11:21:05;5.30;42.10
26907;DHT22;14472;56.880;16.658;2024-01-30T11:23:33;5.30;42.10
26907;DHT22;14472;56.880;16.658;2024-01-30T11:25:58;5.40;37.40
26907;DHT22;14472;56.880;16.658;2024-01-30T11:28:24;5.40;39.90
26907;DHT22;14472;56.880;16.658;2024-01-30T11:30:50;5.40;39.10
26907;DHT22;14472;56.880;16.658;2024-01-30T11:33:30;5.40;35.90
26907;DHT22;14472;56.880;16.658;2024-01-30T11:35:57;5.50;37.80
26907;DHT22;14472;56.880;16.658;2024-01-30T11:38:26;5.50;34.90
26907;DHT22;14472;56.880;16.658;2024-01-30T11:40:54;5.50;31.10
26907;DHT22;14472;56.880;16.658;2024-01-30T11:43:20;5.50;36.00
26907;DHT22;14472;56.880;16.658;2024-01-30T11:45:45;5.50;39.00
26907;DHT22;14472;56.880;16.658;2024-01-30T11:48:12;5.60;46.00
26907;DHT22;14472;56.880;16.658;2024-01-30T11:50:39;5.70;48.60
26907;DHT22;14472;56.880;16.658;2024-01-30T11:53:10;5.70;44.80
26907;DHT22;14472;56.880;16.658;2024-01-30T11:55:35;5.70;44.20
26907;DHT22;14472;56.880;16.658;2024-01-30T11:58:03;5.80;39.20
26907;DHT22;14472;56.880;16.658;2024-01-30T12:00:32;5.70;36.10
26907;DHT22;14472;56.880;16.658;2024-01-30T12:02:58;5.70;36.30
26907;DHT22;14472;56.880;16.658;2024-01-30T12:05:26;5.70;42.70
26907;DHT22;14472;56.880;16.658;2024-01-30T12:07:52;5.80;47.00
26907;DHT22;14472;56.880;16.658;2024-01-30T12:10:18;5.80;51.80
26907;DHT22;14472;56.880;16.658;2024-01-30T12:12:46;5.80;54.70
26907;DHT22;14472;56.880;16.658;2024-01-30T12:15:13;5.80;60.10
26907;DHT22;14472;56.880;16.658;2024-01-30T12:17:39;5.80;60.70
26907;DHT22;14472;56.880;16.658;2024-01-30T12:20:13;5.80;66.60
26907;DHT22;14472;56.880;16.658;2024-01-30T12:22:49;5.80;74.50
26907;DHT22;14472;56.880;16.658;2024-01-30T12:25:16;5.90;91.40
26907;DHT22;14472;56.880;16.658;2024-01-30T12:27:44;6.00;90.80
26907;DHT22;14472;56.880;16.658;2024-01-30T12:30:11;6.00;83.80
26907;DHT22;14472;56.880;16.658;2024-01-30T12:32:40;6.10;81.30
26907;DHT22;14472;56.880;16.658;2024-01-30T12:35:14;6.00;81.50
26907;DHT22;14472;56.880;16.658;2024-01-30T12:37:40;6.10;86.40
26907;DHT22;14472;56.880;16.658;2024-01-30T12:40:07;6.00;90.60
26907;DHT22;14472;56.880;16.658;2024-01-30T12:42:33;6.10;96.00
26907;DHT22;14472;56.880;16.658;2024-01-30T12:45:00;6.00;99.90
26907;DHT22;14472;56.880;16.658;2024-01-30T12:47:26;6.10;99.90
26907;DHT22;14472;56.880;16.658;2024-01-30T12:49:51;6.10;99.90
26907;DHT22;14472;56.880;16.658;2024-01-30T12:52:20;6.10;99.90
26907;DHT22;14472;56.880;16.658;2024-01-30T12:54:47;6.20;99.90
26907;DHT22;14472;56.880;16.658;2024-01-30T12:57:12;6.30;99.90
26907;DHT22;14472;56.880;16.658;2024-01-30T12:59:38;6.20;99.90
26907;DHT22;14472;56.880;16.658;2024-01-30T13:02:04;6.20;97.90
26907;DHT22;14472;56.880;16.658;2024-01-30T13:04:30;6.20;98.00
26907;DHT22;14472;56.880;16.658;2024-01-30T13:06:57;6.20;96.40
26907;DHT22;14472;56.880;16.658;2024-01-30T13:09:23;6.20;95.00
26907;DHT22;14472;56.880;16.658;2024-01-30T13:11:49;6.20;97.90
26907;DHT22;14472;56.880;16.658;2024-01-30T13:14:15;6.10;96.90
26907;DHT22;14472;56.880;16.658;2024-01-30T13:16:41;6.10;97.80
26907;DHT22;14472;56.880;16.658;2024-01-30T13:19:06;6.10;99.00
26907;DHT22;14472;56.880;16.658;2024-01-30T13:21:32;6.00;99.90
26907;DHT22;14472;56.880;16.658;2024-01-30T13:23:58;6.00;99.90
26907;DHT22;14472;56.880;16.658;2024-01-30T13:26:23;5.80;99.90
26907;DHT22;14472;56.880;16.658;2024-01-30T13:28:49;5.70;99.90
26907;DHT22;14472;56.880;16.658;2024-01-30T13:31:15;5.90;99.90
26907;DHT22;14472;56.880;16.658;2024-01-30T13:33:42;6.00;99.90
26907;DHT22;14472;56.880;16.658;2024-01-30T13:36:08;5.90;99.90
26907;DHT22;14472;56.880;16.658;2024-01-30T13:38:34;5.80;99.90
26907;DHT22;14472;56.880;16.658;2024-01-30T13:41:00;5.90;99.90
26907;DHT22;14472;56.880;16.658;2024-01-30T13:43:26;6.00;99.90
26907;DHT22;14472;56.880;16.658;2024-01-30T13:45:51;5.90;99.90
26907;DHT22;14472;56.880;16.658;2024-01-30T13:48:17;5.80;99.90
26907;DHT22;14472;56.880;16.658;2024-01-30T13:50:43;5.80;99.90
26907;DHT22;14472;56.880;16.658;2024-01-30T13:53:09;5.80;99.90
26907;DHT22;14472;56.880;16.658;2024-01-30T13:55:34;5.90;99.90
26907;DHT22;14472;56.880;16.658;2024-01-30T13:58:00;5.80;99.90
26907;DHT22;14472;56.880;16.658;2024-01-30T14:00:29;5.90;99.90
26907;DHT22;14472;56.880;16.658;2024-01-30T14:02:55;5.80;99.90
26907;DHT22;14472;56.880;16.658;2024-01-30T14:05:21;5.90;99.90
26907;DHT22;14472;56.880;16.658;2024-01-30T14:07:47;5.90;99.90
26907;DHT22;14472;56.880;16.658;2024-01-30T14:10:13;5.80;99.90
26907;DHT22;14472;56.880;16.658;2024-01-30T14:12:39;5.80;99.90
26907;DHT22;14472;56.880;16.658;2024-01-30T14:15:07;5.70;99.90
26907;DHT22;14472;56.880;16.658;2024-01-30T14:17:33;5.90;99.90
26907;DHT22;14472;56.880;16.658;2024-01-30T14:19:58;5.90;99.90
26907;DHT22;14472;56.880;16.658;2024-01-30T14:22:24;5.80;99.90
26907;DHT22;14472;56.880;16.658;2024-01-30T14:24:50;5.90;99.90
26907;DHT22;14472;56.880;16.658;2024-01-30T14:27:15;5.90;99.90
26907;DHT22;14472;56.880;16.658;2024-01-30T14:29:41;6.00;99.90
26907;DHT22;14472;56.880;16.658;2024-01-30T14:32:08;6.00;99.90
26907;DHT22;14472;56.880;16.658;2024-01-30T14:34:34;5.90;99.90
26907;DHT22;14472;56.880;16.658;2024-01-30T14:37:00;5.80;99.90
26907;DHT22;14472;56.880;16.658;2024-01-30T14:39:26;5.80;99.90
26907;DHT22;14472;56.880;16.658;2024-01-30T14:41:52;5.90;99.90
26907;DHT22;14472;56.880;16.658;2024-01-30T14:44:18;6.00;99.90
26907;DHT22;14472;56.880;16.658;2024-01-30T14:46:43;5.90;99.90
26907;DHT22;14472;56.880;16.658;2024-01-30T14:49:09;5.90;99.90
26907;DHT22;14472;56.880;16.658;2024-01-30T14:51:35;5.90;99.90
26907;DHT22;14472;56.880;16.658;2024-01-30T14:54:01;6.10;99.90
26907;DHT22;14472;56.880;16.658;2024-01-30T14:56:27;5.90;99.90
26907;DHT22;14472;56.880;16.658;2024-01-30T14:58:52;5.80;99.90
26907;DHT22;14472;56.880;16.658;2024-01-30T15:01:18;5.70;99.90
26907;DHT22;14472;56.880;16.658;2024-01-30T15:03:45;5.80;99.90
26907;DHT22;14472;56.880;16.658;2024-01-30T15:06:13;5.70;99.90
26907;DHT22;14472;56.880;16.658;2024-01-30T15:08:38;5.50;99.90
26907;DHT22;14472;56.880;16.658;2024-01-30T15:11:04;5.30;99.90
26907;DHT22;14472;56.880;16.658;2024-01-30T15:13:30;5.30;99.90
26907;DHT22;14472;56.880;16.658;2024-01-30T15:15:57;5.20;99.90
26907;DHT22;14472;56.880;16.658;2024-01-30T15:18:23;5.30;99.90
26907;DHT22;14472;56.880;16.658;2024-01-30T15:20:49;5.20;99.90
26907;DHT22;14472;56.880;16.658;2024-01-30T15:23:15;5.20;99.90
26907;DHT22;14472;56.880;16.658;2024-01-30T15:25:41;5.10;99.90